sensor_id;sensor_type;location;lat;lon;timestamp;P1;durP1;ratioP1;P2;durP2;ratioP2
20533;SDS011;12929;56.822;26.056;2022-08-19T00:01:46;18.50;;;13.88;;
20533;SDS011;12929;56.822;26.056;2022-08-19T00:04:23;17.83;;;13.07;;
20533;SDS011;12929;56.822;26.056;2022-08-19T00:06:53;21.98;;;14.90;;
20533;SDS011;12929;56.822;26.056;2022-08-19T00:09:22;18.48;;;14.07;;
20533;SDS011;12929;56.822;26.056;2022-08-19T00:11:50;20.98;;;15.45;;
20533;SDS011;12929;56.822;26.056;2022-08-19T00:14:19;20.02;;;14.10;;
20533;SDS011;12929;56.822;26.056;2022-08-19T00:16:47;18.47;;;14.17;;
20533;SDS011;12929;56.822;26.056;2022-08-19T00:19:16;18.60;;;14.03;;
20533;SDS011;12929;56.822;26.056;2022-08-19T00:21:43;19.58;;;13.48;;
20533;SDS011;12929;56.822;26.056;2022-08-19T00:24:12;22.15;;;14.90;;
20533;SDS011;12929;56.822;26.056;2022-08-19T00:26:42;20.08;;;13.68;;
20533;SDS011;12929;56.822;26.056;2022-08-19T00:29:11;19.42;;;13.85;;
20533;SDS011;12929;56.822;26.056;2022-08-19T00:31:40;16.52;;;13.90;;
20533;SDS011;12929;56.822;26.056;2022-08-19T00:34:09;21.85;;;15.32;;
20533;SDS011;12929;56.822;26.056;2022-08-19T00:36:38;20.42;;;14.90;;
20533;SDS011;12929;56.822;26.056;2022-08-19T00:39:07;21.13;;;14.13;;
20533;SDS011;12929;56.822;26.056;2022-08-19T00:41:35;18.77;;;14.98;;
20533;SDS011;12929;56.822;26.056;2022-08-19T00:46:33;21.58;;;14.63;;
20533;SDS011;12929;56.822;26.056;2022-08-19T00:49:13;18.25;;;14.60;;
20533;SDS011;12929;56.822;26.056;2022-08-19T00:51:49;20.98;;;15.10;;
20533;SDS011;12929;56.822;26.056;2022-08-19T00:54:21;22.42;;;15.98;;
20533;SDS011;12929;56.822;26.056;2022-08-19T00:56:57;19.98;;;14.00;;
20533;SDS011;12929;56.822;26.056;2022-08-19T00:59:26;20.17;;;14.77;;
20533;SDS011;12929;56.822;26.056;2022-08-19T01:02:16;21.50;;;13.95;;
20533;SDS011;12929;56.822;26.056;2022-08-19T01:04:44;20.55;;;13.38;;
20533;SDS011;12929;56.822;26.056;2022-08-19T01:07:11;16.58;;;13.60;;
20533;SDS011;12929;56.822;26.056;2022-08-19T01:09:42;17.25;;;13.60;;
20533;SDS011;12929;56.822;26.056;2022-08-19T01:12:10;18.83;;;13.63;;
20533;SDS011;12929;56.822;26.056;2022-08-19T01:14:39;20.37;;;13.77;;
20533;SDS011;12929;56.822;26.056;2022-08-19T01:17:07;16.02;;;13.23;;
20533;SDS011;12929;56.822;26.056;2022-08-19T01:19:38;19.55;;;13.85;;
20533;SDS011;12929;56.822;26.056;2022-08-19T01:22:25;17.65;;;13.27;;
20533;SDS011;12929;56.822;26.056;2022-08-19T01:25:01;16.95;;;12.45;;
20533;SDS011;12929;56.822;26.056;2022-08-19T01:27:42;18.10;;;13.63;;
20533;SDS011;12929;56.822;26.056;2022-08-19T01:30:13;16.55;;;12.25;;
20533;SDS011;12929;56.822;26.056;2022-08-19T01:32:43;17.50;;;14.13;;
20533;SDS011;12929;56.822;26.056;2022-08-19T01:35:12;15.93;;;13.55;;
20533;SDS011;12929;56.822;26.056;2022-08-19T01:37:47;16.90;;;14.05;;
20533;SDS011;12929;56.822;26.056;2022-08-19T01:40:30;15.55;;;12.30;;
20533;SDS011;12929;56.822;26.056;2022-08-19T01:43:00;20.63;;;13.30;;
20533;SDS011;12929;56.822;26.056;2022-08-19T01:45:30;16.95;;;12.23;;
20533;SDS011;12929;56.822;26.056;2022-08-19T01:47:59;17.90;;;12.57;;
20533;SDS011;12929;56.822;26.056;2022-08-19T01:50:28;17.08;;;12.82;;
20533;SDS011;12929;56.822;26.056;2022-08-19T01:52:57;16.73;;;13.02;;
20533;SDS011;12929;56.822;26.056;2022-08-19T01:55:34;18.40;;;13.93;;
20533;SDS011;12929;56.822;26.056;2022-08-19T01:58:11;17.30;;;12.50;;
20533;SDS011;12929;56.822;26.056;2022-08-19T02:00:42;16.67;;;12.52;;
20533;SDS011;12929;56.822;26.056;2022-08-19T02:03:10;19.25;;;12.45;;
20533;SDS011;12929;56.822;26.056;2022-08-19T02:05:38;17.67;;;12.93;;
20533;SDS011;12929;56.822;26.056;2022-08-19T02:08:07;20.40;;;12.68;;
20533;SDS011;12929;56.822;26.056;2022-08-19T02:10:38;20.05;;;12.90;;
20533;SDS011;12929;56.822;26.056;2022-08-19T02:13:10;19.60;;;13.53;;
20533;SDS011;12929;56.822;26.056;2022-08-19T02:15:40;18.60;;;12.98;;
20533;SDS011;12929;56.822;26.056;2022-08-19T02:18:07;16.63;;;11.90;;
20533;SDS011;12929;56.822;26.056;2022-08-19T02:20:36;20.02;;;12.57;;
20533;SDS011;12929;56.822;26.056;2022-08-19T02:23:05;18.20;;;12.68;;
20533;SDS011;12929;56.822;26.056;2022-08-19T02:25:42;16.05;;;12.77;;
20533;SDS011;12929;56.822;26.056;2022-08-19T02:28:11;18.20;;;12.77;;
20533;SDS011;12929;56.822;26.056;2022-08-19T02:30:44;14.95;;;11.80;;
20533;SDS011;12929;56.822;26.056;2022-08-19T02:33:13;18.90;;;13.13;;
20533;SDS011;12929;56.822;26.056;2022-08-19T02:35:41;15.70;;;11.82;;
20533;SDS011;12929;56.822;26.056;2022-08-19T02:38:10;17.50;;;12.45;;
20533;SDS011;12929;56.822;26.056;2022-08-19T02:40:54;15.45;;;12.18;;
20533;SDS011;12929;56.822;26.056;2022-08-19T02:43:30;16.80;;;12.07;;
20533;SDS011;12929;56.822;26.056;2022-08-19T02:46:11;16.40;;;12.77;;
20533;SDS011;12929;56.822;26.056;2022-08-19T02:48:51;18.23;;;11.77;;
20533;SDS011;12929;56.822;26.056;2022-08-19T02:51:25;18.75;;;11.93;;
20533;SDS011;12929;56.822;26.056;2022-08-19T02:53:54;17.70;;;12.30;;
20533;SDS011;12929;56.822;26.056;2022-08-19T02:56:23;19.50;;;11.95;;
20533;SDS011;12929;56.822;26.056;2022-08-19T02:58:54;15.95;;;11.82;;
20533;SDS011;12929;56.822;26.056;2022-08-19T03:01:27;17.15;;;12.15;;
20533;SDS011;12929;56.822;26.056;2022-08-19T03:03:59;15.27;;;12.35;;
20533;SDS011;12929;56.822;26.056;2022-08-19T03:06:28;15.38;;;11.27;;
20533;SDS011;12929;56.822;26.056;2022-08-19T03:08:56;18.75;;;12.45;;
20533;SDS011;12929;56.822;26.056;2022-08-19T03:11:28;17.23;;;12.57;;
20533;SDS011;12929;56.822;26.056;2022-08-19T03:13:58;15.60;;;11.70;;
20533;SDS011;12929;56.822;26.056;2022-08-19T03:16:28;15.68;;;11.77;;
20533;SDS011;12929;56.822;26.056;2022-08-19T03:18:59;16.58;;;11.77;;
20533;SDS011;12929;56.822;26.056;2022-08-19T03:21:31;17.77;;;12.80;;
20533;SDS011;12929;56.822;26.056;2022-08-19T03:24:05;16.38;;;11.10;;
20533;SDS011;12929;56.822;26.056;2022-08-19T03:26:34;17.55;;;12.23;;
20533;SDS011;12929;56.822;26.056;2022-08-19T03:29:05;15.48;;;11.57;;
20533;SDS011;12929;56.822;26.056;2022-08-19T03:31:35;16.55;;;11.85;;
20533;SDS011;12929;56.822;26.056;2022-08-19T03:34:23;16.85;;;12.52;;
20533;SDS011;12929;56.822;26.056;2022-08-19T03:36:57;16.90;;;11.90;;
20533;SDS011;12929;56.822;26.056;2022-08-19T03:39:27;18.37;;;12.10;;
20533;SDS011;12929;56.822;26.056;2022-08-19T03:41:54;16.75;;;12.00;;
20533;SDS011;12929;56.822;26.056;2022-08-19T03:44:48;12.87;;;10.37;;
20533;SDS011;12929;56.822;26.056;2022-08-19T03:47:16;14.32;;;10.52;;
20533;SDS011;12929;56.822;26.056;2022-08-19T03:49:44;15.30;;;10.88;;
20533;SDS011;12929;56.822;26.056;2022-08-19T03:52:12;15.27;;;12.10;;
20533;SDS011;12929;56.822;26.056;2022-08-19T03:54:40;13.13;;;10.52;;
20533;SDS011;12929;56.822;26.056;2022-08-19T03:57:07;14.98;;;10.98;;
20533;SDS011;12929;56.822;26.056;2022-08-19T03:59:36;12.82;;;10.82;;
20533;SDS011;12929;56.822;26.056;2022-08-19T04:02:10;13.50;;;11.10;;
20533;SDS011;12929;56.822;26.056;2022-08-19T04:04:40;15.70;;;11.47;;
20533;SDS011;12929;56.822;26.056;2022-08-19T04:07:11;16.45;;;10.07;;
20533;SDS011;12929;56.822;26.056;2022-08-19T04:09:42;17.17;;;11.23;;
20533;SDS011;12929;56.822;26.056;2022-08-19T04:12:10;15.68;;;11.75;;
20533;SDS011;12929;56.822;26.056;2022-08-19T04:14:39;18.48;;;11.45;;
20533;SDS011;12929;56.822;26.056;2022-08-19T04:17:07;15.57;;;10.40;;
20533;SDS011;12929;56.822;26.056;2022-08-19T04:19:35;16.27;;;11.43;;
20533;SDS011;12929;56.822;26.056;2022-08-19T04:22:03;15.32;;;11.07;;
20533;SDS011;12929;56.822;26.056;2022-08-19T04:24:31;15.25;;;11.55;;
20533;SDS011;12929;56.822;26.056;2022-08-19T04:27:00;14.02;;;10.18;;
20533;SDS011;12929;56.822;26.056;2022-08-19T04:29:29;13.50;;;11.55;;
20533;SDS011;12929;56.822;26.056;2022-08-19T04:31:57;16.17;;;11.20;;
20533;SDS011;12929;56.822;26.056;2022-08-19T04:34:35;17.25;;;11.38;;
20533;SDS011;12929;56.822;26.056;2022-08-19T04:37:23;15.37;;;11.30;;
20533;SDS011;12929;56.822;26.056;2022-08-19T04:39:51;21.73;;;16.27;;
20533;SDS011;12929;56.822;26.056;2022-08-19T04:42:37;25.58;;;18.48;;
20533;SDS011;12929;56.822;26.056;2022-08-19T04:45:12;16.85;;;12.32;;
20533;SDS011;12929;56.822;26.056;2022-08-19T04:47:43;16.52;;;12.13;;
20533;SDS011;12929;56.822;26.056;2022-08-19T04:50:26;14.02;;;10.88;;
20533;SDS011;12929;56.822;26.056;2022-08-19T04:52:54;15.05;;;11.15;;
20533;SDS011;12929;56.822;26.056;2022-08-19T04:55:23;14.60;;;10.05;;
20533;SDS011;12929;56.822;26.056;2022-08-19T04:57:54;15.05;;;10.05;;
20533;SDS011;12929;56.822;26.056;2022-08-19T05:00:22;14.33;;;10.20;;
20533;SDS011;12929;56.822;26.056;2022-08-19T05:02:49;12.88;;;10.15;;
20533;SDS011;12929;56.822;26.056;2022-08-19T05:05:17;15.15;;;10.70;;
20533;SDS011;12929;56.822;26.056;2022-08-19T05:07:46;13.60;;;10.27;;
20533;SDS011;12929;56.822;26.056;2022-08-19T05:10:14;15.10;;;10.45;;
20533;SDS011;12929;56.822;26.056;2022-08-19T05:12:42;15.77;;;10.45;;
20533;SDS011;12929;56.822;26.056;2022-08-19T05:15:09;13.70;;;10.98;;
20533;SDS011;12929;56.822;26.056;2022-08-19T05:17:37;12.27;;;10.65;;
20533;SDS011;12929;56.822;26.056;2022-08-19T05:20:25;13.15;;;10.38;;
20533;SDS011;12929;56.822;26.056;2022-08-19T05:23:11;18.02;;;10.75;;
20533;SDS011;12929;56.822;26.056;2022-08-19T05:25:47;13.77;;;10.18;;
20533;SDS011;12929;56.822;26.056;2022-08-19T05:28:15;13.85;;;10.85;;
20533;SDS011;12929;56.822;26.056;2022-08-19T05:30:43;14.67;;;11.47;;
20533;SDS011;12929;56.822;26.056;2022-08-19T05:33:13;25.25;;;16.50;;
20533;SDS011;12929;56.822;26.056;2022-08-19T05:35:40;14.93;;;12.25;;
20533;SDS011;12929;56.822;26.056;2022-08-19T05:38:08;14.05;;;9.70;;
20533;SDS011;12929;56.822;26.056;2022-08-19T05:40:38;14.80;;;10.25;;
20533;SDS011;12929;56.822;26.056;2022-08-19T05:43:06;16.42;;;10.00;;
20533;SDS011;12929;56.822;26.056;2022-08-19T05:45:38;15.27;;;10.43;;
20533;SDS011;12929;56.822;26.056;2022-08-19T05:48:07;15.82;;;10.60;;
20533;SDS011;12929;56.822;26.056;2022-08-19T05:50:38;16.25;;;10.75;;
20533;SDS011;12929;56.822;26.056;2022-08-19T05:53:07;14.32;;;9.85;;
20533;SDS011;12929;56.822;26.056;2022-08-19T05:55:36;13.27;;;9.60;;
20533;SDS011;12929;56.822;26.056;2022-08-19T05:58:05;13.77;;;9.85;;
20533;SDS011;12929;56.822;26.056;2022-08-19T06:00:35;16.58;;;10.23;;
20533;SDS011;12929;56.822;26.056;2022-08-19T06:03:04;16.30;;;10.15;;
20533;SDS011;12929;56.822;26.056;2022-08-19T06:05:39;14.02;;;9.48;;
20533;SDS011;12929;56.822;26.056;2022-08-19T06:08:15;11.82;;;10.15;;
20533;SDS011;12929;56.822;26.056;2022-08-19T06:10:45;15.80;;;9.80;;
20533;SDS011;12929;56.822;26.056;2022-08-19T06:13:12;14.07;;;9.60;;
20533;SDS011;12929;56.822;26.056;2022-08-19T06:15:40;17.55;;;9.75;;
20533;SDS011;12929;56.822;26.056;2022-08-19T06:18:10;16.45;;;9.75;;
20533;SDS011;12929;56.822;26.056;2022-08-19T06:20:40;14.45;;;9.85;;
20533;SDS011;12929;56.822;26.056;2022-08-19T06:23:21;18.05;;;9.98;;
20533;SDS011;12929;56.822;26.056;2022-08-19T06:25:49;15.38;;;9.40;;
20533;SDS011;12929;56.822;26.056;2022-08-19T06:28:17;14.55;;;9.73;;
20533;SDS011;12929;56.822;26.056;2022-08-19T06:30:45;16.42;;;9.73;;
20533;SDS011;12929;56.822;26.056;2022-08-19T06:33:13;15.93;;;9.63;;
20533;SDS011;12929;56.822;26.056;2022-08-19T06:35:41;13.38;;;9.05;;
20533;SDS011;12929;56.822;26.056;2022-08-19T06:38:14;14.90;;;9.32;;
20533;SDS011;12929;56.822;26.056;2022-08-19T06:40:42;16.77;;;9.23;;
20533;SDS011;12929;56.822;26.056;2022-08-19T06:43:16;13.93;;;9.00;;
20533;SDS011;12929;56.822;26.056;2022-08-19T06:45:44;15.43;;;9.10;;
20533;SDS011;12929;56.822;26.056;2022-08-19T06:48:13;15.87;;;9.00;;
20533;SDS011;12929;56.822;26.056;2022-08-19T06:50:43;14.13;;;8.77;;
20533;SDS011;12929;56.822;26.056;2022-08-19T06:53:11;14.75;;;9.40;;
20533;SDS011;12929;56.822;26.056;2022-08-19T06:55:39;18.60;;;9.30;;
20533;SDS011;12929;56.822;26.056;2022-08-19T06:58:07;14.13;;;9.10;;
20533;SDS011;12929;56.822;26.056;2022-08-19T07:00:36;15.00;;;8.57;;
20533;SDS011;12929;56.822;26.056;2022-08-19T07:03:04;14.98;;;9.23;;
20533;SDS011;12929;56.822;26.056;2022-08-19T07:05:38;15.02;;;9.20;;
20533;SDS011;12929;56.822;26.056;2022-08-19T07:08:12;13.15;;;9.05;;
20533;SDS011;12929;56.822;26.056;2022-08-19T07:10:44;14.25;;;8.60;;
20533;SDS011;12929;56.822;26.056;2022-08-19T07:13:13;17.63;;;9.13;;
20533;SDS011;12929;56.822;26.056;2022-08-19T07:15:40;17.90;;;9.05;;
20533;SDS011;12929;56.822;26.056;2022-08-19T07:18:08;13.23;;;8.57;;
20533;SDS011;12929;56.822;26.056;2022-08-19T07:20:37;13.00;;;8.23;;
20533;SDS011;12929;56.822;26.056;2022-08-19T07:23:07;12.63;;;8.93;;
20533;SDS011;12929;56.822;26.056;2022-08-19T07:25:42;12.77;;;8.40;;
20533;SDS011;12929;56.822;26.056;2022-08-19T07:28:18;13.63;;;8.00;;
20533;SDS011;12929;56.822;26.056;2022-08-19T07:30:51;13.05;;;7.80;;
20533;SDS011;12929;56.822;26.056;2022-08-19T07:33:19;15.50;;;8.02;;
20533;SDS011;12929;56.822;26.056;2022-08-19T07:35:47;16.13;;;8.43;;
20533;SDS011;12929;56.822;26.056;2022-08-19T07:38:16;15.18;;;8.43;;
20533;SDS011;12929;56.822;26.056;2022-08-19T07:40:44;13.40;;;8.23;;
20533;SDS011;12929;56.822;26.056;2022-08-19T07:43:12;11.77;;;8.23;;
20533;SDS011;12929;56.822;26.056;2022-08-19T07:45:43;13.97;;;8.27;;
20533;SDS011;12929;56.822;26.056;2022-08-19T07:48:11;12.63;;;8.55;;
20533;SDS011;12929;56.822;26.056;2022-08-19T07:50:39;12.63;;;8.45;;
20533;SDS011;12929;56.822;26.056;2022-08-19T07:53:07;12.85;;;8.60;;
20533;SDS011;12929;56.822;26.056;2022-08-19T07:55:35;13.65;;;8.30;;
20533;SDS011;12929;56.822;26.056;2022-08-19T07:58:09;12.85;;;8.82;;
20533;SDS011;12929;56.822;26.056;2022-08-19T08:00:39;14.77;;;8.80;;
20533;SDS011;12929;56.822;26.056;2022-08-19T08:03:08;12.52;;;8.50;;
20533;SDS011;12929;56.822;26.056;2022-08-19T08:05:36;16.40;;;9.37;;
20533;SDS011;12929;56.822;26.056;2022-08-19T08:08:22;16.25;;;9.20;;
20533;SDS011;12929;56.822;26.056;2022-08-19T08:11:15;13.95;;;8.90;;
20533;SDS011;12929;56.822;26.056;2022-08-19T08:13:46;14.20;;;9.20;;
20533;SDS011;12929;56.822;26.056;2022-08-19T08:16:32;17.00;;;8.52;;
20533;SDS011;12929;56.822;26.056;2022-08-19T08:19:12;15.30;;;8.30;;
20533;SDS011;12929;56.822;26.056;2022-08-19T08:21:52;11.13;;;8.45;;
20533;SDS011;12929;56.822;26.056;2022-08-19T08:24:24;13.43;;;8.93;;
20533;SDS011;12929;56.822;26.056;2022-08-19T08:26:57;16.45;;;9.20;;
20533;SDS011;12929;56.822;26.056;2022-08-19T08:29:27;14.02;;;8.63;;
20533;SDS011;12929;56.822;26.056;2022-08-19T08:32:00;17.20;;;9.23;;
20533;SDS011;12929;56.822;26.056;2022-08-19T08:34:28;18.20;;;9.25;;
20533;SDS011;12929;56.822;26.056;2022-08-19T08:36:56;16.30;;;8.80;;
20533;SDS011;12929;56.822;26.056;2022-08-19T08:39:23;15.98;;;9.10;;
20533;SDS011;12929;56.822;26.056;2022-08-19T08:42:07;13.48;;;8.68;;
20533;SDS011;12929;56.822;26.056;2022-08-19T08:44:47;14.05;;;9.02;;
20533;SDS011;12929;56.822;26.056;2022-08-19T08:47:23;16.40;;;8.98;;
20533;SDS011;12929;56.822;26.056;2022-08-19T08:49:56;14.50;;;9.20;;
20533;SDS011;12929;56.822;26.056;2022-08-19T08:52:29;14.90;;;9.00;;
20533;SDS011;12929;56.822;26.056;2022-08-19T08:55:07;13.73;;;8.75;;
20533;SDS011;12929;56.822;26.056;2022-08-19T09:02:56;17.17;;;9.20;;
20533;SDS011;12929;56.822;26.056;2022-08-19T09:05:27;12.02;;;8.23;;
20533;SDS011;12929;56.822;26.056;2022-08-19T09:11:10;13.48;;;8.40;;
20533;SDS011;12929;56.822;26.056;2022-08-19T09:17:06;15.95;;;8.35;;
20533;SDS011;12929;56.822;26.056;2022-08-19T09:19:36;13.85;;;8.40;;
20533;SDS011;12929;56.822;26.056;2022-08-19T09:22:23;11.20;;;7.72;;
20533;SDS011;12929;56.822;26.056;2022-08-19T09:24:54;14.45;;;9.27;;
20533;SDS011;12929;56.822;26.056;2022-08-19T09:27:22;12.30;;;8.73;;
20533;SDS011;12929;56.822;26.056;2022-08-19T09:30:20;14.40;;;8.77;;
20533;SDS011;12929;56.822;26.056;2022-08-19T09:32:53;13.00;;;8.63;;
20533;SDS011;12929;56.822;26.056;2022-08-19T09:35:27;18.52;;;8.88;;
20533;SDS011;12929;56.822;26.056;2022-08-19T09:38:21;14.35;;;8.88;;
20533;SDS011;12929;56.822;26.056;2022-08-19T09:40:51;14.98;;;8.25;;
20533;SDS011;12929;56.822;26.056;2022-08-19T09:43:22;16.05;;;8.82;;
20533;SDS011;12929;56.822;26.056;2022-08-19T09:46:10;14.10;;;8.50;;
20533;SDS011;12929;56.822;26.056;2022-08-19T09:48:44;12.75;;;8.77;;
20533;SDS011;12929;56.822;26.056;2022-08-19T09:51:16;15.75;;;8.95;;
20533;SDS011;12929;56.822;26.056;2022-08-19T09:53:51;13.13;;;8.63;;
20533;SDS011;12929;56.822;26.056;2022-08-19T09:56:24;11.48;;;7.45;;
20533;SDS011;12929;56.822;26.056;2022-08-19T09:58:53;16.38;;;9.13;;
20533;SDS011;12929;56.822;26.056;2022-08-19T10:01:23;28.52;;;9.23;;
20533;SDS011;12929;56.822;26.056;2022-08-19T10:03:56;15.95;;;8.52;;
20533;SDS011;12929;56.822;26.056;2022-08-19T10:06:27;15.07;;;9.05;;
20533;SDS011;12929;56.822;26.056;2022-08-19T10:09:12;15.50;;;8.88;;
20533;SDS011;12929;56.822;26.056;2022-08-19T10:11:41;13.75;;;8.48;;
20533;SDS011;12929;56.822;26.056;2022-08-19T10:14:19;15.23;;;8.20;;
20533;SDS011;12929;56.822;26.056;2022-08-19T10:16:50;12.90;;;8.43;;
20533;SDS011;12929;56.822;26.056;2022-08-19T10:19:18;13.82;;;8.23;;
20533;SDS011;12929;56.822;26.056;2022-08-19T10:21:52;16.00;;;9.23;;
20533;SDS011;12929;56.822;26.056;2022-08-19T10:24:26;15.48;;;9.63;;
20533;SDS011;12929;56.822;26.056;2022-08-19T10:26:55;12.43;;;9.45;;
20533;SDS011;12929;56.822;26.056;2022-08-19T10:29:26;16.83;;;9.20;;
20533;SDS011;12929;56.822;26.056;2022-08-19T10:31:59;13.75;;;8.98;;
20533;SDS011;12929;56.822;26.056;2022-08-19T10:34:36;13.35;;;9.02;;
20533;SDS011;12929;56.822;26.056;2022-08-19T10:37:15;13.93;;;8.13;;
20533;SDS011;12929;56.822;26.056;2022-08-19T10:39:54;13.38;;;8.57;;
20533;SDS011;12929;56.822;26.056;2022-08-19T10:42:22;13.35;;;9.02;;
20533;SDS011;12929;56.822;26.056;2022-08-19T10:44:49;16.65;;;9.85;;
20533;SDS011;12929;56.822;26.056;2022-08-19T10:47:18;14.80;;;8.35;;
20533;SDS011;12929;56.822;26.056;2022-08-19T10:49:51;17.17;;;9.35;;
20533;SDS011;12929;56.822;26.056;2022-08-19T10:52:39;15.40;;;9.52;;
20533;SDS011;12929;56.822;26.056;2022-08-19T10:55:20;15.52;;;9.60;;
20533;SDS011;12929;56.822;26.056;2022-08-19T10:58:15;14.60;;;10.18;;
20533;SDS011;12929;56.822;26.056;2022-08-19T11:00:50;17.33;;;10.30;;
20533;SDS011;12929;56.822;26.056;2022-08-19T11:03:20;17.08;;;10.13;;
20533;SDS011;12929;56.822;26.056;2022-08-19T11:06:04;13.60;;;9.73;;
20533;SDS011;12929;56.822;26.056;2022-08-19T11:08:37;15.77;;;9.90;;
20533;SDS011;12929;56.822;26.056;2022-08-19T11:11:06;13.70;;;9.57;;
20533;SDS011;12929;56.822;26.056;2022-08-19T11:13:38;15.35;;;9.50;;
20533;SDS011;12929;56.822;26.056;2022-08-19T11:16:14;12.95;;;9.90;;
20533;SDS011;12929;56.822;26.056;2022-08-19T11:18:47;12.55;;;9.00;;
20533;SDS011;12929;56.822;26.056;2022-08-19T11:21:27;13.30;;;9.18;;
20533;SDS011;12929;56.822;26.056;2022-08-19T11:24:01;15.27;;;9.00;;
20533;SDS011;12929;56.822;26.056;2022-08-19T11:26:33;16.55;;;9.55;;
20533;SDS011;12929;56.822;26.056;2022-08-19T11:29:04;14.38;;;9.48;;
20533;SDS011;12929;56.822;26.056;2022-08-19T11:31:38;18.60;;;10.13;;
20533;SDS011;12929;56.822;26.056;2022-08-19T11:34:09;14.85;;;9.10;;
20533;SDS011;12929;56.822;26.056;2022-08-19T11:36:44;13.45;;;8.95;;
20533;SDS011;12929;56.822;26.056;2022-08-19T11:39:15;14.20;;;9.23;;
20533;SDS011;12929;56.822;26.056;2022-08-19T11:41:45;14.00;;;9.48;;
20533;SDS011;12929;56.822;26.056;2022-08-19T11:44:13;13.02;;;9.15;;
20533;SDS011;12929;56.822;26.056;2022-08-19T11:46:41;11.77;;;9.05;;
20533;SDS011;12929;56.822;26.056;2022-08-19T11:49:14;10.88;;;8.93;;
20533;SDS011;12929;56.822;26.056;2022-08-19T11:51:46;14.50;;;9.18;;
20533;SDS011;12929;56.822;26.056;2022-08-19T11:54:16;16.17;;;9.77;;
20533;SDS011;12929;56.822;26.056;2022-08-19T11:56:45;14.77;;;9.60;;
20533;SDS011;12929;56.822;26.056;2022-08-19T11:59:17;13.90;;;9.18;;
20533;SDS011;12929;56.822;26.056;2022-08-19T12:01:44;18.58;;;9.73;;
20533;SDS011;12929;56.822;26.056;2022-08-19T12:04:13;14.20;;;8.80;;
20533;SDS011;12929;56.822;26.056;2022-08-19T12:06:41;13.32;;;8.48;;
20533;SDS011;12929;56.822;26.056;2022-08-19T12:09:08;13.25;;;9.27;;
20533;SDS011;12929;56.822;26.056;2022-08-19T12:11:37;16.20;;;9.57;;
20533;SDS011;12929;56.822;26.056;2022-08-19T12:14:08;15.23;;;9.10;;
20533;SDS011;12929;56.822;26.056;2022-08-19T12:16:40;12.85;;;9.07;;
20533;SDS011;12929;56.822;26.056;2022-08-19T12:19:18;14.63;;;9.82;;
20533;SDS011;12929;56.822;26.056;2022-08-19T12:21:48;14.20;;;8.80;;
20533;SDS011;12929;56.822;26.056;2022-08-19T12:24:16;11.23;;;8.63;;
20533;SDS011;12929;56.822;26.056;2022-08-19T12:26:50;12.43;;;9.23;;
20533;SDS011;12929;56.822;26.056;2022-08-19T12:29:21;15.35;;;8.23;;
20533;SDS011;12929;56.822;26.056;2022-08-19T12:31:57;14.77;;;9.43;;
20533;SDS011;12929;56.822;26.056;2022-08-19T12:34:30;12.55;;;8.52;;
20533;SDS011;12929;56.822;26.056;2022-08-19T12:37:01;17.88;;;8.77;;
20533;SDS011;12929;56.822;26.056;2022-08-19T12:39:30;10.75;;;7.88;;
20533;SDS011;12929;56.822;26.056;2022-08-19T12:42:05;11.48;;;8.85;;
20533;SDS011;12929;56.822;26.056;2022-08-19T12:44:35;14.18;;;8.60;;
20533;SDS011;12929;56.822;26.056;2022-08-19T12:47:07;16.25;;;8.57;;
20533;SDS011;12929;56.822;26.056;2022-08-19T12:49:36;13.88;;;8.75;;
20533;SDS011;12929;56.822;26.056;2022-08-19T12:52:24;11.68;;;8.00;;
20533;SDS011;12929;56.822;26.056;2022-08-19T12:54:53;12.75;;;8.50;;
20533;SDS011;12929;56.822;26.056;2022-08-19T12:57:23;14.02;;;8.30;;
20533;SDS011;12929;56.822;26.056;2022-08-19T13:00:04;10.70;;;7.38;;
20533;SDS011;12929;56.822;26.056;2022-08-19T13:02:38;11.02;;;7.28;;
20533;SDS011;12929;56.822;26.056;2022-08-19T13:05:08;9.30;;;7.25;;
20533;SDS011;12929;56.822;26.056;2022-08-19T13:07:38;10.00;;;7.30;;
20533;SDS011;12929;56.822;26.056;2022-08-19T13:10:09;14.00;;;8.50;;
20533;SDS011;12929;56.822;26.056;2022-08-19T13:12:39;11.05;;;7.55;;
20533;SDS011;12929;56.822;26.056;2022-08-19T13:15:08;13.10;;;7.20;;
20533;SDS011;12929;56.822;26.056;2022-08-19T13:17:37;13.88;;;7.55;;
20533;SDS011;12929;56.822;26.056;2022-08-19T13:20:06;14.65;;;7.82;;
20533;SDS011;12929;56.822;26.056;2022-08-19T13:22:37;10.52;;;7.35;;
20533;SDS011;12929;56.822;26.056;2022-08-19T13:25:09;10.85;;;7.30;;
20533;SDS011;12929;56.822;26.056;2022-08-19T13:27:37;14.00;;;7.18;;
20533;SDS011;12929;56.822;26.056;2022-08-19T13:30:08;12.45;;;7.70;;
20533;SDS011;12929;56.822;26.056;2022-08-19T13:32:58;11.82;;;6.97;;
20533;SDS011;12929;56.822;26.056;2022-08-19T13:35:39;9.10;;;6.60;;
20533;SDS011;12929;56.822;26.056;2022-08-19T13:38:09;8.73;;;6.63;;
20533;SDS011;12929;56.822;26.056;2022-08-19T13:40:38;13.05;;;6.55;;
20533;SDS011;12929;56.822;26.056;2022-08-19T13:43:07;12.30;;;7.47;;
20533;SDS011;12929;56.822;26.056;2022-08-19T13:45:49;10.30;;;6.70;;
20533;SDS011;12929;56.822;26.056;2022-08-19T13:48:20;10.35;;;7.20;;
20533;SDS011;12929;56.822;26.056;2022-08-19T13:50:48;11.05;;;6.60;;
20533;SDS011;12929;56.822;26.056;2022-08-19T13:53:16;11.52;;;6.53;;
20533;SDS011;12929;56.822;26.056;2022-08-19T13:55:44;7.72;;;5.60;;
20533;SDS011;12929;56.822;26.056;2022-08-19T13:58:12;11.18;;;5.63;;
20533;SDS011;12929;56.822;26.056;2022-08-19T14:00:41;11.48;;;6.03;;
20533;SDS011;12929;56.822;26.056;2022-08-19T14:03:10;10.98;;;5.90;;
20533;SDS011;12929;56.822;26.056;2022-08-19T14:05:38;11.52;;;5.47;;
20533;SDS011;12929;56.822;26.056;2022-08-19T14:08:06;9.18;;;5.75;;
20533;SDS011;12929;56.822;26.056;2022-08-19T14:10:35;15.88;;;5.80;;
20533;SDS011;12929;56.822;26.056;2022-08-19T14:13:03;9.48;;;5.30;;
20533;SDS011;12929;56.822;26.056;2022-08-19T14:15:31;11.82;;;5.55;;
20533;SDS011;12929;56.822;26.056;2022-08-19T14:17:59;9.38;;;5.55;;
20533;SDS011;12929;56.822;26.056;2022-08-19T14:20:27;8.20;;;5.57;;
20533;SDS011;12929;56.822;26.056;2022-08-19T14:22:55;12.85;;;5.60;;
20533;SDS011;12929;56.822;26.056;2022-08-19T14:25:25;15.88;;;5.97;;
20533;SDS011;12929;56.822;26.056;2022-08-19T14:27:53;22.08;;;6.28;;
20533;SDS011;12929;56.822;26.056;2022-08-19T14:30:27;10.05;;;6.15;;
20533;SDS011;12929;56.822;26.056;2022-08-19T14:32:57;12.63;;;5.75;;
20533;SDS011;12929;56.822;26.056;2022-08-19T14:35:27;17.17;;;6.05;;
20533;SDS011;12929;56.822;26.056;2022-08-19T14:37:56;10.63;;;5.72;;
20533;SDS011;12929;56.822;26.056;2022-08-19T14:40:26;10.02;;;5.70;;
20533;SDS011;12929;56.822;26.056;2022-08-19T14:42:56;10.43;;;5.53;;
20533;SDS011;12929;56.822;26.056;2022-08-19T14:45:31;12.80;;;6.13;;
20533;SDS011;12929;56.822;26.056;2022-08-19T14:48:02;17.90;;;6.10;;
20533;SDS011;12929;56.822;26.056;2022-08-19T14:50:31;12.02;;;5.93;;
20533;SDS011;12929;56.822;26.056;2022-08-19T14:53:07;18.27;;;6.57;;
20533;SDS011;12929;56.822;26.056;2022-08-19T14:55:47;13.57;;;6.43;;
20533;SDS011;12929;56.822;26.056;2022-08-19T14:58:15;11.13;;;6.25;;